Time;durP1;ratioP1;P1;durP2;ratioP2;P2;SDS_P1;SDS_P2;PMS_P1;PMS_P2;Temp;Humidity;BMP_temperature;BMP_pressure;BME280_temperature;BME280_humidity;BME280_pressure;Samples;Min_cycle;Max_cycle;Signal;HPM_P1;HPM_P2
2023/07/25 00:00:10;;;;;;;0.10;0.10;;;14.00;99.90;;;;;;5084066;28;20048;-86
2023/07/25 00:02:36;;;;;;;0.10;0.10;;;14.00;99.90;;;;;;5089145;28;20475;-86
2023/07/25 00:05:05;;;;;;;0.10;0.10;;;13.90;99.90;;;;;;5085602;28;20093;-86
2023/07/25 00:07:31;;;;;;;0.20;0.20;;;13.90;99.90;;;;;;5088708;28;20071;-85
2023/07/25 00:09:58;;;;;;;0.10;0.10;;;13.90;99.90;;;;;;5087487;28;20395;-85
2023/07/25 00:12:23;;;;;;;0.20;0.20;;;13.90;99.90;;;;;;5106655;27;20068;-85
2023/07/25 00:14:49;;;;;;;0.20;0.20;;;13.90;99.90;;;;;;5088561;28;20542;-86
2023/07/25 00:17:15;;;;;;;0.10;0.10;;;13.90;99.90;;;;;;5087432;28;20047;-85
2023/07/25 00:19:41;;;;;;;0.20;0.20;;;13.80;99.90;;;;;;5089192;28;20044;-87
2023/07/25 00:22:07;;;;;;;0.15;0.15;;;13.80;99.90;;;;;;5086929;28;20476;-85
2023/07/25 00:24:33;;;;;;;0.10;0.10;;;13.80;99.90;;;;;;5086067;28;20093;-85
2023/07/25 00:26:58;;;;;;;0.20;0.20;;;13.90;99.90;;;;;;5119663;27;20566;-87
2023/07/25 00:29:24;;;;;;;0.10;0.10;;;13.80;99.90;;;;;;5121753;27;20608;-86
2023/07/25 00:31:49;;;;;;;0.10;0.10;;;13.80;99.90;;;;;;5112509;27;20535;-85
2023/07/25 00:34:15;;;;;;;0.20;0.20;;;13.80;99.90;;;;;;5079799;28;20476;-85
2023/07/25 00:36:41;;;;;;;0.20;0.20;;;13.80;99.90;;;;;;5074888;28;20467;-86
2023/07/25 00:39:06;;;;;;;0.20;0.20;;;13.80;99.90;;;;;;5090501;28;20048;-87
2023/07/25 00:41:32;;;;;;;0.10;0.10;;;13.80;99.90;;;;;;5086905;28;20039;-84
2023/07/25 00:43:58;;;;;;;0.10;0.10;;;13.80;99.90;;;;;;5079288;28;20046;-85
2023/07/25 00:46:24;;;;;;;0.15;0.15;;;13.80;99.90;;;;;;5116018;27;20656;-85
2023/07/25 00:48:50;;;;;;;0.20;0.20;;;13.80;99.90;;;;;;5111489;27;20043;-84
2023/07/25 00:51:16;;;;;;;0.10;0.10;;;13.90;99.90;;;;;;5085492;28;20155;-86
2023/07/25 00:53:42;;;;;;;0.15;0.15;;;13.90;99.90;;;;;;5079368;28;20126;-86
2023/07/25 00:56:10;;;;;;;0.15;0.15;;;13.80;99.90;;;;;;5091710;28;20054;-86
2023/07/25 00:58:36;;;;;;;0.20;0.20;;;14.00;99.90;;;;;;5088999;28;20044;-84
2023/07/25 01:01:03;;;;;;;0.15;0.15;;;13.80;99.90;;;;;;5081776;28;20040;-85
2023/07/25 01:03:30;;;;;;;0.20;0.20;;;13.80;99.90;;;;;;5082056;28;20067;-85
2023/07/25 01:05:59;;;;;;;0.20;0.20;;;13.80;99.90;;;;;;5084119;28;20083;-85
2023/07/25 01:08:25;;;;;;;0.20;0.20;;;13.70;99.90;;;;;;5087627;28;20036;-85
2023/07/25 01:10:50;;;;;;;0.20;0.20;;;13.70;99.90;;;;;;5083751;28;20471;-85
2023/07/25 01:13:16;;;;;;;0.20;0.20;;;13.80;99.90;;;;;;5087477;28;20040;-85
2023/07/25 01:15:42;;;;;;;0.20;0.20;;;13.70;99.90;;;;;;5085963;28;20422;-86
2023/07/25 01:18:09;;;;;;;0.20;0.20;;;13.80;99.90;;;;;;5121505;27;20147;-86
2023/07/25 01:20:35;;;;;;;0.10;0.10;;;13.70;99.90;;;;;;5093227;28;20051;-86
2023/07/25 01:23:02;;;;;;;0.15;0.15;;;13.70;99.90;;;;;;5084436;28;20048;-86
2023/07/25 01:25:28;;;;;;;0.20;0.20;;;13.70;99.90;;;;;;5074981;28;20075;-86
2023/07/25 01:27:54;;;;;;;0.20;0.20;;;13.70;99.90;;;;;;5079111;28;20072;-85
2023/07/25 01:30:19;;;;;;;0.10;0.10;;;13.80;99.90;;;;;;5093254;28;20071;-86
2023/07/25 01:32:45;;;;;;;0.10;0.10;;;13.70;99.90;;;;;;5077388;28;20024;-86
2023/07/25 01:35:11;;;;;;;0.17;0.17;;;13.70;99.90;;;;;;5087222;28;20051;-85
2023/07/25 01:37:36;;;;;;;0.10;0.10;;;13.70;99.90;;;;;;5087951;28;20048;-86
2023/07/25 01:40:03;;;;;;;0.10;0.10;;;13.70;99.90;;;;;;5081924;28;20387;-86
2023/07/25 01:42:29;;;;;;;0.20;0.20;;;13.80;99.90;;;;;;5085793;28;20042;-85
2023/07/25 01:44:54;;;;;;;0.20;0.20;;;13.70;99.90;;;;;;5076883;28;20871;-85
2023/07/25 01:47:25;;;;;;;0.20;0.20;;;13.70;99.90;;;;;;5077282;28;20047;-85
2023/07/25 01:49:53;;;;;;;0.20;0.20;;;13.80;99.90;;;;;;5074212;28;20095;-86
2023/07/25 01:52:20;;;;;;;0.17;0.17;;;13.80;99.90;;;;;;5079664;28;20306;-85
2023/07/25 01:54:47;;;;;;;0.20;0.20;;;13.80;99.90;;;;;;5103576;27;20127;-86
2023/07/25 01:57:13;;;;;;;0.20;0.20;;;13.80;99.90;;;;;;5084572;28;20050;-85
2023/07/25 01:59:39;;;;;;;0.10;0.10;;;13.70;99.90;;;;;;5084622;28;20036;-86
2023/07/25 02:02:05;;;;;;;0.10;0.10;;;13.90;99.90;;;;;;5077676;28;20081;-84
2023/07/25 02:04:31;;;;;;;0.10;0.10;;;13.90;99.90;;;;;;5101490;27;20044;-85
2023/07/25 02:06:56;;;;;;;0.10;0.10;;;13.90;99.90;;;;;;5081383;28;20036;-85
2023/07/25 02:09:22;;;;;;;0.20;0.20;;;13.90;99.90;;;;;;5074669;28;20071;-86
2023/07/25 02:11:48;;;;;;;0.10;0.10;;;13.90;99.90;;;;;;5086379;28;20044;-85
2023/07/25 02:14:13;;;;;;;0.10;0.10;;;13.90;99.90;;;;;;5081074;28;20090;-85
2023/07/25 02:16:40;;;;;;;0.20;0.20;;;13.90;99.90;;;;;;5082630;28;20051;-86
2023/07/25 02:19:06;;;;;;;0.17;0.17;;;13.80;99.90;;;;;;5089080;28;20071;-86
2023/07/25 02:21:32;;;;;;;0.20;0.20;;;13.90;99.90;;;;;;5119359;27;20087;-84
2023/07/25 02:23:58;;;;;;;0.20;0.20;;;14.00;99.90;;;;;;5088685;28;20462;-85
2023/07/25 02:26:24;;;;;;;0.10;0.10;;;14.00;99.90;;;;;;5078270;28;20075;-85
2023/07/25 02:28:49;;;;;;;0.10;0.10;;;14.00;99.90;;;;;;5070761;28;20109;-86
2023/07/25 02:31:15;;;;;;;0.10;0.10;;;14.10;99.90;;;;;;5110254;28;20084;-86
2023/07/25 02:33:41;;;;;;;0.10;0.10;;;14.00;99.90;;;;;;5087597;28;20074;-85
2023/07/25 02:36:06;;;;;;;0.10;0.10;;;14.00;99.90;;;;;;5082066;28;20051;-86
2023/07/25 02:38:32;;;;;;;0.10;0.10;;;14.00;99.90;;;;;;5079752;28;20482;-85
2023/07/25 02:40:58;;;;;;;0.20;0.20;;;14.00;99.90;;;;;;5080760;28;20047;-86
2023/07/25 02:43:24;;;;;;;0.10;0.10;;;14.10;99.90;;;;;;5085059;28;20123;-85
2023/07/25 02:45:53;;;;;;;0.20;0.20;;;14.10;99.90;;;;;;5116437;28;20122;-87
2023/07/25 02:48:19;;;;;;;0.10;0.10;;;14.00;99.90;;;;;;5087658;28;20069;-86
2023/07/25 02:50:45;;;;;;;0.20;0.20;;;14.10;99.90;;;;;;5087583;28;20052;-86
2023/07/25 02:53:11;;;;;;;0.20;0.20;;;14.10;99.90;;;;;;5091283;28;20372;-86
2023/07/25 02:55:37;;;;;;;0.10;0.10;;;14.10;99.90;;;;;;5090540;28;20044;-87
2023/07/25 02:58:03;;;;;;;0.10;0.10;;;14.10;99.90;;;;;;5105659;28;20048;-85
2023/07/25 03:00:29;;;;;;;0.10;0.10;;;14.10;99.90;;;;;;5082673;28;20407;-84
2023/07/25 03:02:55;;;;;;;0.15;0.15;;;14.20;99.90;;;;;;5080042;28;20044;-85
2023/07/25 03:05:21;;;;;;;0.20;0.20;;;14.20;99.90;;;;;;5091162;28;20048;-85
2023/07/25 03:07:47;;;;;;;0.13;0.13;;;14.20;99.90;;;;;;5081104;28;20040;-85
2023/07/25 03:10:13;;;;;;;0.20;0.20;;;14.20;99.90;;;;;;5081178;28;20055;-84
2023/07/25 03:12:38;;;;;;;0.20;0.20;;;14.30;99.90;;;;;;5084462;28;20037;-83
2023/07/25 03:15:05;;;;;;;0.10;0.10;;;14.20;99.90;;;;;;5079634;28;20460;-85
2023/07/25 03:17:31;;;;;;;0.10;0.10;;;14.20;99.90;;;;;;5098617;28;20044;-84
2023/07/25 03:19:57;;;;;;;0.10;0.10;;;14.20;99.90;;;;;;5082205;28;20075;-85
2023/07/25 03:22:23;;;;;;;0.13;0.13;;;14.20;99.90;;;;;;5087838;28;20078;-83
2023/07/25 03:24:49;;;;;;;0.10;0.10;;;14.20;99.90;;;;;;5072616;28;20496;-86
2023/07/25 03:27:16;;;;;;;0.10;0.10;;;14.20;99.90;;;;;;5070237;28;20064;-86
2023/07/25 03:29:42;;;;;;;0.10;0.10;;;14.10;99.90;;;;;;5077276;28;20040;-85
2023/07/25 03:32:08;;;;;;;0.20;0.20;;;14.20;99.90;;;;;;5084106;28;20041;-85
2023/07/25 03:34:33;;;;;;;0.10;0.10;;;14.20;99.90;;;;;;5078449;28;20043;-86
2023/07/25 03:36:59;;;;;;;0.10;0.10;;;14.20;99.90;;;;;;5080892;28;20040;-86
2023/07/25 03:39:25;;;;;;;0.20;0.20;;;14.20;99.90;;;;;;5113011;27;20474;-86
2023/07/25 03:41:50;;;;;;;0.10;0.10;;;14.20;99.90;;;;;;5090004;28;20594;-86
2023/07/25 03:44:20;;;;;;;0.10;0.10;;;14.20;99.90;;;;;;5119092;27;20040;-85
2023/07/25 03:46:45;;;;;;;0.15;0.15;;;14.20;99.90;;;;;;5094226;28;20040;-85
2023/07/25 03:49:12;;;;;;;0.10;0.10;;;14.20;99.90;;;;;;5089828;28;20055;-84
2023/07/25 03:51:38;;;;;;;0.20;0.20;;;14.20;99.90;;;;;;5087834;28;20074;-85
2023/07/25 03:54:05;;;;;;;0.10;0.10;;;14.20;99.90;;;;;;5091146;28;20036;-85
2023/07/25 03:56:31;;;;;;;0.10;0.10;;;14.20;99.90;;;;;;5090573;28;20032;-85
2023/07/25 03:58:56;;;;;;;0.10;0.10;;;14.20;99.90;;;;;;5081719;28;20101;-85
2023/07/25 04:01:22;;;;;;;0.15;0.15;;;14.20;99.90;;;;;;5092884;28;20043;-85
2023/07/25 04:03:48;;;;;;;0.20;0.20;;;14.30;99.90;;;;;;5082024;28;20036;-85
2023/07/25 04:06:14;;;;;;;0.20;0.20;;;14.20;99.90;;;;;;5112919;27;20051;-84
2023/07/25 04:08:39;;;;;;;0.10;0.10;;;14.30;99.90;;;;;;5120911;27;20052;-85
2023/07/25 04:11:05;;;;;;;0.20;0.20;;;14.30;99.90;;;;;;5084919;28;20047;-85
2023/07/25 04:13:31;;;;;;;0.10;0.10;;;14.20;99.90;;;;;;5105042;28;20278;-84
2023/07/25 04:15:57;;;;;;;0.10;0.10;;;14.20;99.90;;;;;;5080444;28;20044;-85
2023/07/25 04:18:22;;;;;;;0.20;0.20;;;14.20;99.90;;;;;;5079347;28;20044;-84
2023/07/25 04:20:48;;;;;;;0.10;0.10;;;14.20;99.90;;;;;;5077071;28;20060;-85
2023/07/25 04:23:15;;;;;;;0.20;0.20;;;14.10;99.90;;;;;;5082571;28;20035;-85
2023/07/25 04:25:41;;;;;;;0.20;0.20;;;14.20;99.90;;;;;;5090240;28;20036;-84
2023/07/25 04:28:07;;;;;;;0.20;0.20;;;14.10;99.90;;;;;;5082319;28;20439;-85
2023/07/25 04:30:33;;;;;;;0.20;0.20;;;14.20;99.90;;;;;;5085415;28;20051;-85
2023/07/25 04:32:58;;;;;;;0.10;0.10;;;14.20;99.90;;;;;;5083955;28;20392;-85
2023/07/25 04:35:24;;;;;;;0.10;0.10;;;14.20;99.90;;;;;;5080609;28;20040;-85
2023/07/25 04:37:50;;;;;;;0.10;0.10;;;14.20;99.90;;;;;;5082349;28;20040;-85
2023/07/25 04:40:15;;;;;;;0.20;0.20;;;14.20;99.90;;;;;;5090387;28;20098;-84
2023/07/25 04:42:41;;;;;;;0.10;0.10;;;14.20;99.90;;;;;;5122784;27;20039;-85
2023/07/25 04:45:07;;;;;;;0.10;0.10;;;14.20;99.90;;;;;;5087713;28;20040;-87
2023/07/25 04:47:33;;;;;;;0.20;0.20;;;14.20;99.90;;;;;;5082680;28;20063;-86
2023/07/25 04:49:59;;;;;;;0.10;0.10;;;14.20;99.90;;;;;;5090379;28;20485;-86
2023/07/25 04:52:24;;;;;;;0.13;0.13;;;14.20;99.90;;;;;;5084007;28;20136;-85
2023/07/25 04:54:52;;;;;;;0.10;0.10;;;14.20;99.90;;;;;;5076786;28;20065;-86
2023/07/25 04:57:18;;;;;;;0.10;0.10;;;14.20;99.90;;;;;;5107496;28;20092;-85
2023/07/25 04:59:43;;;;;;;0.20;0.20;;;14.30;99.90;;;;;;5095893;28;20051;-85
2023/07/25 05:02:09;;;;;;;0.20;0.20;;;14.30;99.90;;;;;;5091624;28;20105;-85
2023/07/25 05:04:35;;;;;;;0.20;0.20;;;14.30;99.90;;;;;;5083511;28;20039;-85
2023/07/25 05:07:00;;;;;;;0.10;0.10;;;14.40;99.90;;;;;;5086961;28;20054;-86
2023/07/25 05:09:26;;;;;;;0.20;0.20;;;14.40;99.90;;;;;;5086646;28;20426;-85
2023/07/25 05:11:52;;;;;;;0.20;0.20;;;14.40;99.90;;;;;;5087445;28;20070;-86
2023/07/25 05:14:18;;;;;;;0.20;0.20;;;14.40;99.90;;;;;;5119970;27;20086;-86
2023/07/25 05:16:43;;;;;;;0.17;0.17;;;14.40;99.90;;;;;;5083705;28;20135;-86
2023/07/25 05:19:09;;;;;;;0.10;0.10;;;14.50;99.90;;;;;;5083829;28;20589;-86
2023/07/25 05:21:35;;;;;;;0.10;0.10;;;14.40;99.90;;;;;;5080070;28;20390;-86
2023/07/25 05:24:02;;;;;;;0.15;0.15;;;14.50;99.90;;;;;;5085282;28;20048;-84
2023/07/25 05:26:28;;;;;;;0.13;0.13;;;14.50;99.90;;;;;;5111371;27;20055;-86
2023/07/25 05:28:53;;;;;;;0.20;0.20;;;14.50;99.90;;;;;;5084579;28;20043;-85
2023/07/25 05:31:19;;;;;;;0.20;0.20;;;14.50;99.90;;;;;;5078873;28;20048;-85
2023/07/25 05:33:45;;;;;;;0.20;0.20;;;14.40;99.90;;;;;;5081451;28;20040;-85
2023/07/25 05:36:10;;;;;;;0.10;0.10;;;14.50;99.90;;;;;;5082001;28;20343;-85
2023/07/25 05:38:36;;;;;;;0.10;0.10;;;14.40;99.90;;;;;;5086167;28;20050;-85
2023/07/25 05:41:03;;;;;;;0.10;0.10;;;14.40;99.90;;;;;;5078206;28;20036;-84
2023/07/25 05:43:28;;;;;;;0.10;0.10;;;14.40;99.90;;;;;;5073811;28;20048;-85
2023/07/25 05:45:54;;;;;;;0.10;0.10;;;14.50;99.90;;;;;;5077524;28;20391;-85
2023/07/25 05:48:20;;;;;;;0.10;0.10;;;14.50;99.90;;;;;;5084347;28;20043;-86
2023/07/25 05:50:52;;;;;;;0.10;0.10;;;14.50;99.90;;;;;;5074207;28;20445;-85
2023/07/25 05:53:18;;;;;;;0.17;0.17;;;14.40;99.90;;;;;;5090193;28;20491;-85
2023/07/25 05:55:45;;;;;;;0.20;0.20;;;14.40;99.90;;;;;;5089514;28;20079;-86
2023/07/25 05:58:13;;;;;;;0.10;0.10;;;14.50;99.90;;;;;;5088636;28;20044;-85
2023/07/25 06:00:39;;;;;;;0.20;0.20;;;14.40;99.90;;;;;;5080495;28;20048;-86
2023/07/25 06:03:04;;;;;;;0.10;0.10;;;14.40;99.90;;;;;;5071081;28;20063;-85
2023/07/25 06:05:30;;;;;;;0.20;0.20;;;14.40;99.90;;;;;;5075430;28;20093;-85
2023/07/25 06:07:56;;;;;;;0.20;0.20;;;14.50;99.90;;;;;;5115200;27;20048;-85
2023/07/25 06:10:21;;;;;;;0.20;0.20;;;14.50;99.90;;;;;;5068740;28;20049;-85
2023/07/25 06:12:47;;;;;;;0.10;0.10;;;14.50;99.90;;;;;;5088347;28;20036;-86
2023/07/25 06:15:13;;;;;;;0.20;0.20;;;14.50;99.90;;;;;;5084265;28;20105;-87
2023/07/25 06:17:38;;;;;;;0.20;0.20;;;14.50;99.90;;;;;;5081101;28;20402;-85
2023/07/25 06:20:05;;;;;;;0.20;0.20;;;14.60;99.90;;;;;;5088725;28;20085;-85
2023/07/25 06:22:31;;;;;;;0.20;0.20;;;14.60;99.90;;;;;;5088019;28;20106;-86
2023/07/25 06:24:57;;;;;;;0.10;0.10;;;14.60;99.90;;;;;;5087329;28;20689;-86
2023/07/25 06:27:22;;;;;;;0.20;0.20;;;14.60;99.90;;;;;;5089238;28;20044;-85
2023/07/25 06:29:48;;;;;;;0.10;0.10;;;14.70;99.90;;;;;;5086987;28;20165;-85
2023/07/25 06:32:14;;;;;;;0.10;0.10;;;14.70;99.90;;;;;;5091166;28;20130;-85
2023/07/25 06:34:40;;;;;;;0.20;0.20;;;14.70;99.90;;;;;;5083365;28;20546;-86
2023/07/25 06:37:06;;;;;;;0.20;0.20;;;14.80;99.90;;;;;;5089652;28;20422;-86
2023/07/25 06:39:31;;;;;;;0.10;0.10;;;14.80;99.90;;;;;;5089360;28;20481;-85
2023/07/25 06:41:57;;;;;;;0.10;0.10;;;14.80;99.90;;;;;;5087141;28;20051;-84
2023/07/25 06:44:23;;;;;;;0.10;0.10;;;14.90;99.90;;;;;;5111497;28;20048;-85
2023/07/25 06:46:49;;;;;;;0.20;0.20;;;14.90;99.90;;;;;;5086779;28;20083;-85
2023/07/25 06:49:15;;;;;;;0.10;0.10;;;15.00;99.90;;;;;;5114219;28;20067;-84
2023/07/25 06:51:40;;;;;;;0.20;0.20;;;15.00;99.90;;;;;;5087087;28;20142;-85
2023/07/25 06:54:06;;;;;;;0.10;0.10;;;15.00;99.90;;;;;;5088764;28;20040;-85
2023/07/25 06:56:32;;;;;;;0.10;0.10;;;15.10;99.90;;;;;;5089526;28;20044;-87
2023/07/25 06:58:58;;;;;;;0.20;0.20;;;15.10;99.90;;;;;;5079250;28;20400;-85
2023/07/25 07:01:27;;;;;;;0.10;0.10;;;15.10;99.90;;;;;;5067895;28;20159;-84
2023/07/25 07:03:54;;;;;;;0.10;0.10;;;15.20;99.90;;;;;;5076656;28;20039;-84
2023/07/25 07:06:20;;;;;;;0.10;0.10;;;15.20;99.90;;;;;;5092290;28;20044;-84
2023/07/25 07:08:46;;;;;;;0.20;0.20;;;15.20;99.90;;;;;;5092111;28;20501;-85
2023/07/25 07:11:12;;;;;;;0.20;0.20;;;15.30;99.90;;;;;;5114375;27;20052;-84
2023/07/25 07:13:37;;;;;;;0.10;0.10;;;15.30;99.90;;;;;;5076420;28;20048;-85
2023/07/25 07:16:03;;;;;;;0.10;0.10;;;15.30;99.90;;;;;;5088724;28;20138;-85
2023/07/25 07:18:29;;;;;;;0.20;0.20;;;15.30;99.90;;;;;;5101130;28;20539;-81
2023/07/25 07:20:54;;;;;;;0.20;0.20;;;15.30;99.90;;;;;;5120266;27;20040;-86
2023/07/25 07:23:20;;;;;;;0.10;0.10;;;15.30;99.90;;;;;;5090743;28;20051;-86
2023/07/25 07:25:46;;;;;;;0.10;0.10;;;15.30;99.90;;;;;;5101678;28;20044;-86
2023/07/25 07:28:12;;;;;;;0.20;0.20;;;15.40;99.90;;;;;;5093944;28;20334;-85
2023/07/25 07:30:38;;;;;;;0.15;0.15;;;15.40;99.90;;;;;;5098666;28;20056;-90
2023/07/25 07:33:04;;;;;;;0.10;0.10;;;15.50;99.90;;;;;;5102985;28;20080;-85
2023/07/25 07:35:29;;;;;;;0.20;0.20;;;15.50;99.90;;;;;;5087958;28;20040;-85
2023/07/25 07:37:55;;;;;;;0.10;0.10;;;15.60;99.90;;;;;;5079958;28;20048;-85
2023/07/25 07:40:21;;;;;;;0.10;0.10;;;15.70;99.90;;;;;;5086054;28;20039;-83
2023/07/25 07:42:47;;;;;;;0.10;0.10;;;15.70;99.90;;;;;;5118063;27;20122;-83
2023/07/25 07:45:12;;;;;;;0.20;0.20;;;15.70;99.90;;;;;;5082147;28;20079;-85
2023/07/25 07:47:38;;;;;;;0.20;0.20;;;15.70;99.90;;;;;;5099714;28;20059;-87
2023/07/25 07:50:04;;;;;;;0.20;0.20;;;15.70;99.90;;;;;;5092261;28;20127;-88
2023/07/25 07:52:30;;;;;;;0.20;0.20;;;15.70;99.90;;;;;;5098732;28;20097;-86
2023/07/25 07:54:56;;;;;;;0.10;0.10;;;15.70;99.90;;;;;;5095054;28;20619;-85
2023/07/25 07:57:21;;;;;;;0.20;0.20;;;15.70;99.90;;;;;;5098751;28;20040;-86
2023/07/25 07:59:47;;;;;;;0.20;0.20;;;15.80;99.90;;;;;;5117197;27;20044;-86
2023/07/25 08:02:13;;;;;;;0.20;0.20;;;15.90;99.90;;;;;;5108165;28;20050;-86
2023/07/25 08:04:38;;;;;;;0.10;0.10;;;15.90;99.90;;;;;;5080844;28;20414;-86
2023/07/25 08:07:04;;;;;;;0.17;0.17;;;16.00;99.90;;;;;;5089131;28;20063;-84
2023/07/25 08:09:29;;;;;;;0.20;0.20;;;16.00;99.90;;;;;;5087893;28;20047;-83
2023/07/25 08:11:55;;;;;;;0.10;0.10;;;16.10;99.90;;;;;;5087279;28;20457;-86
2023/07/25 08:14:21;;;;;;;0.20;0.20;;;16.10;99.90;;;;;;5088805;28;20410;-86
2023/07/25 08:16:46;;;;;;;0.10;0.10;;;16.10;99.90;;;;;;5086018;28;20051;-86
2023/07/25 08:19:12;;;;;;;0.20;0.20;;;16.10;99.90;;;;;;5119218;27;20123;-86
2023/07/25 08:21:38;;;;;;;0.20;0.20;;;16.00;99.90;;;;;;5078677;28;20041;-87
2023/07/25 08:24:04;;;;;;;0.20;0.20;;;16.10;99.90;;;;;;5102189;28;20071;-88
2023/07/25 08:26:30;;;;;;;0.20;0.20;;;16.10;99.90;;;;;;5089626;28;20494;-85
2023/07/25 08:28:55;;;;;;;0.10;0.10;;;16.10;99.90;;;;;;5089750;28;20075;-87
2023/07/25 08:31:21;;;;;;;0.20;0.20;;;16.10;99.90;;;;;;5093141;28;20052;-85
2023/07/25 08:33:47;;;;;;;0.17;0.17;;;16.20;99.90;;;;;;5089285;28;20040;-85
2023/07/25 08:36:13;;;;;;;0.10;0.10;;;16.30;99.90;;;;;;5119926;27;20139;-85
2023/07/25 08:38:41;;;;;;;0.20;0.20;;;16.40;99.90;;;;;;5085516;28;20037;-87
2023/07/25 08:41:19;;;;;;;0.20;0.20;;;16.50;99.90;;;;;;5075306;28;20045;-87
2023/07/25 08:43:44;;;;;;;0.17;0.17;;;16.50;99.90;;;;;;5094980;28;20047;-88
2023/07/25 08:46:12;;;;;;;0.10;0.10;;;16.60;99.90;;;;;;5090802;28;20036;-85
2023/07/25 08:48:40;;;;;;;0.17;0.17;;;16.70;99.90;;;;;;5089507;28;20063;-87
2023/07/25 08:51:21;;;;;;;0.10;0.10;;;16.70;99.90;;;;;;5091682;28;20044;-91
2023/07/25 08:54:01;;;;;;;0.20;0.20;;;16.90;99.90;;;;;;5094410;28;20048;-92
2023/07/25 08:56:28;;;;;;;0.20;0.20;;;16.90;99.90;;;;;;5092222;28;20040;-91
2023/07/25 08:58:55;;;;;;;0.17;0.17;;;17.00;99.90;;;;;;5097461;28;20081;-92
2023/07/25 09:01:21;;;;;;;0.10;0.10;;;17.00;99.90;;;;;;5105501;28;20048;-90
2023/07/25 09:03:48;;;;;;;0.20;0.20;;;17.10;99.90;;;;;;5108310;28;20051;-91
2023/07/25 09:06:15;;;;;;;0.10;0.10;;;17.10;99.90;;;;;;5091445;28;20514;-87
2023/07/25 09:08:40;;;;;;;0.20;0.20;;;17.20;99.90;;;;;;5091642;28;20040;-88
2023/07/25 09:11:09;;;;;;;0.10;0.10;;;17.20;99.90;;;;;;5093772;28;20101;-89
2023/07/25 09:13:36;;;;;;;0.20;0.20;;;17.30;99.90;;;;;;5091982;28;20048;-89
2023/07/25 09:16:03;;;;;;;0.10;0.10;;;17.30;99.90;;;;;;5089584;28;20121;-88
2023/07/25 09:18:29;;;;;;;0.10;0.10;;;17.30;99.90;;;;;;5091288;28;20040;-87
2023/07/25 09:20:55;;;;;;;0.13;0.13;;;17.30;99.90;;;;;;5091250;28;20032;-88
2023/07/25 09:23:21;;;;;;;0.20;0.20;;;17.30;99.90;;;;;;5090436;28;20126;-89
2023/07/25 09:25:49;;;;;;;0.10;0.10;;;17.40;99.90;;;;;;5090397;28;20515;-90
2023/07/25 09:28:14;;;;;;;0.17;0.17;;;17.40;99.90;;;;;;5091025;28;20414;-88
2023/07/25 09:30:50;;;;;;;0.10;0.10;;;17.50;99.90;;;;;;5092146;28;20560;-87
2023/07/25 09:33:25;;;;;;;0.10;0.10;;;17.50;99.90;;;;;;5088028;28;20500;-87
2023/07/25 09:35:52;;;;;;;0.20;0.20;;;17.60;99.90;;;;;;5089506;28;20048;-89
2023/07/25 09:38:18;;;;;;;0.10;0.10;;;17.60;99.90;;;;;;5091722;28;20032;-89
2023/07/25 09:40:46;;;;;;;0.10;0.10;;;17.70;99.90;;;;;;5091691;28;20077;-88
2023/07/25 09:43:26;;;;;;;0.10;0.10;;;17.60;99.90;;;;;;5090284;28;20403;-86
2023/07/25 09:45:53;;;;;;;0.10;0.10;;;17.70;99.90;;;;;;5090718;28;20562;-89
2023/07/25 09:48:19;;;;;;;0.20;0.20;;;17.60;99.90;;;;;;5094405;28;20042;-89
2023/07/25 09:50:44;;;;;;;0.10;0.10;;;17.70;99.90;;;;;;5092107;28;20466;-89
2023/07/25 09:53:12;;;;;;;0.20;0.20;;;17.70;99.90;;;;;;5088366;28;20036;-91
2023/07/25 09:55:38;;;;;;;0.17;0.17;;;17.70;99.90;;;;;;5085512;28;20755;-91
2023/07/25 09:58:04;;;;;;;0.17;0.17;;;17.80;99.90;;;;;;5088689;28;20052;-88
2023/07/25 10:00:31;;;;;;;0.20;0.20;;;17.90;99.90;;;;;;5089386;28;20067;-86
2023/07/25 10:03:00;;;;;;;0.20;0.20;;;18.00;99.90;;;;;;5090209;28;20467;-89
2023/07/25 10:05:28;;;;;;;0.20;0.20;;;18.00;99.90;;;;;;5089634;28;20047;-86
2023/07/25 10:07:59;;;;;;;0.20;0.20;;;18.00;99.90;;;;;;5091936;28;20421;-88
2023/07/25 10:10:26;;;;;;;0.15;0.15;;;18.00;99.90;;;;;;5089333;28;20048;-87
2023/07/25 10:12:54;;;;;;;0.15;0.15;;;18.00;99.90;;;;;;5089066;28;20166;-86
2023/07/25 10:15:20;;;;;;;0.20;0.20;;;18.00;99.90;;;;;;5090833;28;20055;-86
2023/07/25 10:17:47;;;;;;;0.20;0.20;;;18.00;99.90;;;;;;5090756;28;20044;-87
2023/07/25 10:20:25;;;;;;;0.20;0.20;;;18.00;99.90;;;;;;5088667;28;20088;-88
2023/07/25 10:22:50;;;;;;;0.20;0.20;;;18.10;99.90;;;;;;5092836;28;20035;-89
2023/07/25 10:25:28;;;;;;;0.15;0.15;;;18.10;99.90;;;;;;5091989;28;20036;-88
2023/07/25 10:28:02;;;;;;;0.20;0.20;;;18.10;99.90;;;;;;5090592;28;20079;-88
2023/07/25 10:30:39;;;;;;;0.20;0.20;;;18.20;99.90;;;;;;5091056;28;20047;-88
2023/07/25 10:33:07;;;;;;;0.20;0.20;;;18.10;99.90;;;;;;5110124;28;20138;-87
2023/07/25 10:35:38;;;;;;;0.20;0.20;;;18.10;99.90;;;;;;5092764;28;20048;-89
2023/07/25 10:38:09;;;;;;;0.10;0.10;;;18.00;99.90;;;;;;5089661;28;20044;-85
2023/07/25 10:40:52;;;;;;;0.20;0.20;;;17.90;99.90;;;;;;5092902;28;20116;-88
2023/07/25 10:43:19;;;;;;;0.20;0.20;;;18.00;99.90;;;;;;5076692;28;20040;-90
2023/07/25 10:45:45;;;;;;;0.20;0.20;;;18.00;99.90;;;;;;5094600;28;20043;-86
2023/07/25 10:48:50;;;;;;;0.17;0.17;;;18.10;99.90;;;;;;5094741;28;20050;-91
2023/07/25 10:51:18;;;;;;;0.20;0.20;;;18.20;99.90;;;;;;5059333;28;20418;-90
2023/07/25 10:54:08;;;;;;;0.10;0.10;;;18.20;99.90;;;;;;5074790;28;20041;-90
2023/07/25 10:56:34;;;;;;;0.10;0.10;;;18.10;99.90;;;;;;5118503;27;20508;-90
2023/07/25 10:59:02;;;;;;;0.20;0.20;;;18.10;99.90;;;;;;5122063;27;20123;-89
2023/07/25 11:01:37;;;;;;;0.20;0.20;;;18.00;99.90;;;;;;5075092;28;20068;-90
2023/07/25 11:04:31;;;;;;;0.20;0.20;;;18.10;99.90;;;;;;5108622;28;20091;-84
2023/07/25 11:06:59;;;;;;;0.10;0.10;;;18.10;99.90;;;;;;5117986;27;20048;-88
2023/07/25 11:09:26;;;;;;;0.20;0.20;;;18.20;99.90;;;;;;5092779;28;20157;-87
2023/07/25 11:11:53;;;;;;;0.20;0.20;;;18.20;99.90;;;;;;5091025;28;20047;-90
2023/07/25 11:14:20;;;;;;;0.20;0.20;;;18.20;99.90;;;;;;5095074;28;20059;-90
2023/07/25 11:16:51;;;;;;;0.20;0.20;;;18.20;99.90;;;;;;5096761;28;20088;-84
2023/07/25 11:19:17;;;;;;;0.20;0.20;;;18.20;99.90;;;;;;5099625;27;20181;-89
2023/07/25 11:21:44;;;;;;;0.20;0.20;;;18.20;99.90;;;;;;5092012;28;20175;-87
2023/07/25 11:24:11;;;;;;;0.20;0.20;;;18.20;99.90;;;;;;5126152;27;20128;-87
2023/07/25 11:26:37;;;;;;;0.10;0.10;;;18.30;99.90;;;;;;5098599;28;20035;-87
2023/07/25 11:29:08;;;;;;;0.20;0.20;;;18.30;99.90;;;;;;5123402;27;20626;-86
2023/07/25 11:31:41;;;;;;;0.30;0.30;;;18.30;99.90;;;;;;5128400;27;20528;-87
2023/07/25 11:34:18;;;;;;;0.20;0.20;;;18.40;99.90;;;;;;5095020;28;20058;-86
2023/07/25 11:36:44;;;;;;;0.10;0.10;;;18.50;99.90;;;;;;5090128;28;20112;-86
2023/07/25 11:39:11;;;;;;;0.20;0.20;;;18.50;99.90;;;;;;5089451;28;20036;-88
2023/07/25 11:41:38;;;;;;;0.10;0.10;;;18.50;99.90;;;;;;5073693;28;20044;-88
2023/07/25 11:44:08;;;;;;;0.20;0.20;;;18.50;99.90;;;;;;5072722;28;20045;-91
2023/07/25 11:46:34;;;;;;;0.20;0.20;;;18.50;99.90;;;;;;5107122;28;20465;-90
2023/07/25 11:49:01;;;;;;;0.20;0.20;;;18.60;99.90;;;;;;5090373;28;20044;-88
2023/07/25 11:51:27;;;;;;;0.20;0.20;;;18.70;99.90;;;;;;5074987;28;20040;-88
2023/07/25 11:53:54;;;;;;;0.20;0.20;;;18.70;99.90;;;;;;5093414;28;20045;-87
2023/07/25 11:56:20;;;;;;;0.20;0.20;;;18.70;99.90;;;;;;5093235;28;20406;-90
2023/07/25 11:58:49;;;;;;;0.17;0.17;;;18.70;99.90;;;;;;5096389;28;20475;-88
2023/07/25 12:01:16;;;;;;;0.10;0.10;;;18.70;99.90;;;;;;5102873;28;20055;-86
2023/07/25 12:03:48;;;;;;;0.20;0.20;;;18.70;99.90;;;;;;5099769;28;20093;-90
2023/07/25 12:06:15;;;;;;;0.20;0.20;;;18.70;99.90;;;;;;5103736;28;20556;-89
2023/07/25 12:08:47;;;;;;;0.20;0.20;;;18.80;99.90;;;;;;5095156;28;20035;-86
2023/07/25 12:11:15;;;;;;;0.20;0.20;;;18.80;99.90;;;;;;5094528;28;20071;-90
2023/07/25 12:13:52;;;;;;;0.20;0.20;;;18.80;99.90;;;;;;5096858;28;20109;-89
2023/07/25 12:16:31;;;;;;;0.20;0.20;;;18.90;99.90;;;;;;5094188;28;20040;-87
2023/07/25 12:19:01;;;;;;;0.20;0.20;;;18.90;99.90;;;;;;5093340;28;20080;-88
2023/07/25 12:21:32;;;;;;;0.20;0.20;;;18.90;99.90;;;;;;5092754;28;20079;-89
2023/07/25 12:24:06;;;;;;;0.20;0.20;;;18.90;99.90;;;;;;5094595;28;20153;-85
2023/07/25 12:26:48;;;;;;;0.13;0.13;;;19.00;99.90;;;;;;5091507;28;20089;-87
2023/07/25 12:29:21;;;;;;;0.20;0.20;;;19.10;99.90;;;;;;5089354;28;20545;-86
2023/07/25 12:31:47;;;;;;;0.20;0.20;;;19.10;99.90;;;;;;5090659;28;20614;-86
2023/07/25 12:34:18;;;;;;;0.17;0.17;;;19.20;99.90;;;;;;5093435;28;20111;-87
2023/07/25 12:36:44;;;;;;;0.20;0.20;;;19.20;99.90;;;;;;5091896;28;20395;-85
2023/07/25 12:39:10;;;;;;;0.20;0.20;;;19.10;99.90;;;;;;5088361;28;20040;-87
2023/07/25 12:41:36;;;;;;;0.10;0.10;;;19.20;99.90;;;;;;5077702;28;20052;-87
2023/07/25 12:44:01;;;;;;;0.20;0.20;;;19.30;99.90;;;;;;5095352;28;20083;-86
2023/07/25 12:46:27;;;;;;;0.20;0.20;;;19.40;99.90;;;;;;5091662;28;20499;-86